sensor_id;sensor_type;location;lat;lon;timestamp;P1;durP1;ratioP1;P2;durP2;ratioP2
6282;SDS011;3174;53.486;9.568;2022-12-07T00:01:07;13.63;;;6.37;;
6282;SDS011;3174;53.486;9.568;2022-12-07T00:03:35;9.93;;;5.57;;
6282;SDS011;3174;53.486;9.568;2022-12-07T00:06:05;11.27;;;5.83;;
6282;SDS011;3174;53.486;9.568;2022-12-07T00:08:34;14.67;;;6.93;;
6282;SDS011;3174;53.486;9.568;2022-12-07T00:11:02;12.07;;;6.53;;
6282;SDS011;3174;53.486;9.568;2022-12-07T00:13:32;16.70;;;6.30;;
6282;SDS011;3174;53.486;9.568;2022-12-07T00:16:01;14.30;;;6.20;;
6282;SDS011;3174;53.486;9.568;2022-12-07T00:18:29;9.83;;;6.10;;
6282;SDS011;3174;53.486;9.568;2022-12-07T00:21:00;12.30;;;5.37;;
6282;SDS011;3174;53.486;9.568;2022-12-07T00:23:29;9.60;;;4.93;;
6282;SDS011;3174;53.486;9.568;2022-12-07T00:26:02;9.90;;;5.67;;
6282;SDS011;3174;53.486;9.568;2022-12-07T00:28:33;11.43;;;5.73;;
6282;SDS011;3174;53.486;9.568;2022-12-07T00:31:02;9.40;;;5.50;;
6282;SDS011;3174;53.486;9.568;2022-12-07T00:33:31;9.83;;;5.40;;
6282;SDS011;3174;53.486;9.568;2022-12-07T00:35:59;11.13;;;5.77;;
6282;SDS011;3174;53.486;9.568;2022-12-07T00:38:28;8.63;;;5.50;;
6282;SDS011;3174;53.486;9.568;2022-12-07T00:40:57;14.80;;;6.23;;
6282;SDS011;3174;53.486;9.568;2022-12-07T00:43:26;10.70;;;5.50;;
6282;SDS011;3174;53.486;9.568;2022-12-07T00:45:56;15.80;;;7.53;;
6282;SDS011;3174;53.486;9.568;2022-12-07T00:48:24;10.40;;;6.10;;
6282;SDS011;3174;53.486;9.568;2022-12-07T00:50:52;11.30;;;5.77;;
6282;SDS011;3174;53.486;9.568;2022-12-07T00:53:20;10.33;;;5.77;;
6282;SDS011;3174;53.486;9.568;2022-12-07T00:55:48;15.47;;;6.10;;
6282;SDS011;3174;53.486;9.568;2022-12-07T00:58:16;9.10;;;4.70;;
6282;SDS011;3174;53.486;9.568;2022-12-07T01:00:44;8.73;;;5.00;;
6282;SDS011;3174;53.486;9.568;2022-12-07T01:03:14;10.83;;;5.20;;
6282;SDS011;3174;53.486;9.568;2022-12-07T01:05:48;10.50;;;5.17;;
6282;SDS011;3174;53.486;9.568;2022-12-07T01:08:17;8.73;;;4.97;;
6282;SDS011;3174;53.486;9.568;2022-12-07T01:10:45;11.67;;;5.97;;
6282;SDS011;3174;53.486;9.568;2022-12-07T01:13:14;12.37;;;6.07;;
6282;SDS011;3174;53.486;9.568;2022-12-07T01:15:42;11.17;;;5.43;;
6282;SDS011;3174;53.486;9.568;2022-12-07T01:18:11;11.03;;;5.87;;
6282;SDS011;3174;53.486;9.568;2022-12-07T01:20:40;10.63;;;6.13;;
6282;SDS011;3174;53.486;9.568;2022-12-07T01:23:08;9.33;;;5.53;;
6282;SDS011;3174;53.486;9.568;2022-12-07T01:25:36;12.23;;;5.87;;
6282;SDS011;3174;53.486;9.568;2022-12-07T01:28:04;10.63;;;5.60;;
6282;SDS011;3174;53.486;9.568;2022-12-07T01:30:32;13.07;;;6.10;;
6282;SDS011;3174;53.486;9.568;2022-12-07T01:33:00;9.83;;;5.33;;
6282;SDS011;3174;53.486;9.568;2022-12-07T01:35:28;10.90;;;5.30;;
6282;SDS011;3174;53.486;9.568;2022-12-07T01:37:57;9.47;;;5.03;;
6282;SDS011;3174;53.486;9.568;2022-12-07T01:40:25;8.47;;;5.30;;
6282;SDS011;3174;53.486;9.568;2022-12-07T01:42:53;9.57;;;6.07;;
6282;SDS011;3174;53.486;9.568;2022-12-07T01:48:05;14.83;;;5.37;;
6282;SDS011;3174;53.486;9.568;2022-12-07T01:50:34;8.13;;;4.17;;
6282;SDS011;3174;53.486;9.568;2022-12-07T01:53:04;8.67;;;4.60;;
6282;SDS011;3174;53.486;9.568;2022-12-07T01:55:34;10.63;;;4.47;;
6282;SDS011;3174;53.486;9.568;2022-12-07T01:58:05;9.57;;;4.93;;
6282;SDS011;3174;53.486;9.568;2022-12-07T02:00:33;7.97;;;4.60;;
6282;SDS011;3174;53.486;9.568;2022-12-07T02:03:02;6.90;;;3.70;;
6282;SDS011;3174;53.486;9.568;2022-12-07T02:05:32;7.67;;;3.93;;
6282;SDS011;3174;53.486;9.568;2022-12-07T02:08:01;6.63;;;3.93;;
6282;SDS011;3174;53.486;9.568;2022-12-07T02:10:31;6.90;;;3.57;;
6282;SDS011;3174;53.486;9.568;2022-12-07T02:13:01;6.53;;;3.60;;
6282;SDS011;3174;53.486;9.568;2022-12-07T02:15:34;7.33;;;3.60;;
6282;SDS011;3174;53.486;9.568;2022-12-07T02:18:09;8.67;;;4.00;;
6282;SDS011;3174;53.486;9.568;2022-12-07T02:20:42;7.53;;;2.87;;
6282;SDS011;3174;53.486;9.568;2022-12-07T02:23:31;8.70;;;3.37;;
6282;SDS011;3174;53.486;9.568;2022-12-07T02:26:44;7.27;;;3.33;;
6282;SDS011;3174;53.486;9.568;2022-12-07T02:29:22;5.87;;;3.13;;
6282;SDS011;3174;53.486;9.568;2022-12-07T02:31:53;5.60;;;3.10;;
6282;SDS011;3174;53.486;9.568;2022-12-07T02:34:28;4.80;;;3.20;;
6282;SDS011;3174;53.486;9.568;2022-12-07T02:37:00;5.10;;;2.90;;
6282;SDS011;3174;53.486;9.568;2022-12-07T02:39:32;5.70;;;2.80;;
6282;SDS011;3174;53.486;9.568;2022-12-07T02:42:02;3.63;;;2.60;;
6282;SDS011;3174;53.486;9.568;2022-12-07T02:44:38;4.67;;;2.53;;
6282;SDS011;3174;53.486;9.568;2022-12-07T02:47:07;5.03;;;2.50;;
6282;SDS011;3174;53.486;9.568;2022-12-07T02:49:37;4.10;;;2.40;;
6282;SDS011;3174;53.486;9.568;2022-12-07T02:52:06;7.90;;;2.57;;
6282;SDS011;3174;53.486;9.568;2022-12-07T02:54:34;4.23;;;2.50;;
6282;SDS011;3174;53.486;9.568;2022-12-07T02:57:04;4.03;;;1.83;;
6282;SDS011;3174;53.486;9.568;2022-12-07T02:59:43;5.00;;;2.70;;
6282;SDS011;3174;53.486;9.568;2022-12-07T03:02:17;4.70;;;2.10;;
6282;SDS011;3174;53.486;9.568;2022-12-07T03:04:51;6.47;;;2.00;;
6282;SDS011;3174;53.486;9.568;2022-12-07T03:07:24;3.63;;;2.20;;
6282;SDS011;3174;53.486;9.568;2022-12-07T03:09:59;6.27;;;1.70;;
6282;SDS011;3174;53.486;9.568;2022-12-07T03:12:32;3.53;;;2.00;;
6282;SDS011;3174;53.486;9.568;2022-12-07T03:15:05;3.17;;;1.60;;
6282;SDS011;3174;53.486;9.568;2022-12-07T03:17:36;2.40;;;1.50;;
6282;SDS011;3174;53.486;9.568;2022-12-07T03:20:07;4.13;;;1.67;;
6282;SDS011;3174;53.486;9.568;2022-12-07T03:22:38;4.20;;;1.40;;
6282;SDS011;3174;53.486;9.568;2022-12-07T03:25:08;4.67;;;1.50;;
6282;SDS011;3174;53.486;9.568;2022-12-07T03:27:39;2.47;;;1.47;;
6282;SDS011;3174;53.486;9.568;2022-12-07T03:30:13;3.77;;;1.40;;
6282;SDS011;3174;53.486;9.568;2022-12-07T03:32:44;2.40;;;1.43;;
6282;SDS011;3174;53.486;9.568;2022-12-07T03:35:14;4.50;;;1.37;;
6282;SDS011;3174;53.486;9.568;2022-12-07T03:37:45;2.43;;;1.60;;
6282;SDS011;3174;53.486;9.568;2022-12-07T03:40:16;4.47;;;1.33;;
6282;SDS011;3174;53.486;9.568;2022-12-07T03:42:48;3.50;;;1.30;;
6282;SDS011;3174;53.486;9.568;2022-12-07T03:45:18;3.20;;;1.20;;
6282;SDS011;3174;53.486;9.568;2022-12-07T03:47:49;2.67;;;1.17;;
6282;SDS011;3174;53.486;9.568;2022-12-07T03:50:21;2.67;;;1.27;;
6282;SDS011;3174;53.486;9.568;2022-12-07T03:52:54;2.57;;;1.23;;
6282;SDS011;3174;53.486;9.568;2022-12-07T03:55:25;2.23;;;1.40;;
6282;SDS011;3174;53.486;9.568;2022-12-07T03:57:55;2.57;;;1.33;;
6282;SDS011;3174;53.486;9.568;2022-12-07T04:00:26;3.77;;;1.20;;
6282;SDS011;3174;53.486;9.568;2022-12-07T04:02:55;4.13;;;1.40;;
6282;SDS011;3174;53.486;9.568;2022-12-07T04:05:23;2.63;;;1.33;;
6282;SDS011;3174;53.486;9.568;2022-12-07T04:07:51;2.10;;;1.10;;
6282;SDS011;3174;53.486;9.568;2022-12-07T04:10:19;1.97;;;1.10;;
6282;SDS011;3174;53.486;9.568;2022-12-07T04:12:47;1.60;;;1.20;;
6282;SDS011;3174;53.486;9.568;2022-12-07T04:15:15;3.80;;;1.63;;
6282;SDS011;3174;53.486;9.568;2022-12-07T04:17:44;1.37;;;1.13;;
6282;SDS011;3174;53.486;9.568;2022-12-07T04:20:12;2.97;;;1.10;;
6282;SDS011;3174;53.486;9.568;2022-12-07T04:22:40;3.90;;;1.30;;
6282;SDS011;3174;53.486;9.568;2022-12-07T04:25:08;3.03;;;1.17;;
6282;SDS011;3174;53.486;9.568;2022-12-07T04:27:36;1.07;;;0.90;;
6282;SDS011;3174;53.486;9.568;2022-12-07T04:30:05;4.83;;;1.40;;
6282;SDS011;3174;53.486;9.568;2022-12-07T04:32:34;1.40;;;1.13;;
6282;SDS011;3174;53.486;9.568;2022-12-07T04:35:03;4.57;;;1.60;;
6282;SDS011;3174;53.486;9.568;2022-12-07T04:37:32;2.63;;;1.20;;
6282;SDS011;3174;53.486;9.568;2022-12-07T04:40:00;2.33;;;1.50;;
6282;SDS011;3174;53.486;9.568;2022-12-07T04:42:28;2.70;;;1.30;;
6282;SDS011;3174;53.486;9.568;2022-12-07T04:44:56;3.20;;;1.50;;
6282;SDS011;3174;53.486;9.568;2022-12-07T04:47:24;1.80;;;1.03;;
6282;SDS011;3174;53.486;9.568;2022-12-07T04:49:52;3.53;;;1.00;;
6282;SDS011;3174;53.486;9.568;2022-12-07T04:52:21;2.77;;;1.50;;
6282;SDS011;3174;53.486;9.568;2022-12-07T04:54:49;1.73;;;1.07;;
6282;SDS011;3174;53.486;9.568;2022-12-07T04:57:17;5.67;;;0.90;;
6282;SDS011;3174;53.486;9.568;2022-12-07T04:59:45;3.33;;;1.00;;
6282;SDS011;3174;53.486;9.568;2022-12-07T05:02:13;1.20;;;1.10;;
6282;SDS011;3174;53.486;9.568;2022-12-07T05:04:41;2.53;;;1.30;;
6282;SDS011;3174;53.486;9.568;2022-12-07T05:07:09;3.90;;;1.20;;
6282;SDS011;3174;53.486;9.568;2022-12-07T05:09:38;3.20;;;1.07;;
6282;SDS011;3174;53.486;9.568;2022-12-07T05:12:06;3.60;;;1.20;;
6282;SDS011;3174;53.486;9.568;2022-12-07T05:14:34;2.20;;;1.17;;
6282;SDS011;3174;53.486;9.568;2022-12-07T05:17:02;2.93;;;1.23;;
6282;SDS011;3174;53.486;9.568;2022-12-07T05:19:30;3.20;;;1.03;;
6282;SDS011;3174;53.486;9.568;2022-12-07T05:21:58;5.80;;;1.20;;
6282;SDS011;3174;53.486;9.568;2022-12-07T05:24:26;1.40;;;1.00;;
6282;SDS011;3174;53.486;9.568;2022-12-07T05:26:55;1.10;;;0.73;;
6282;SDS011;3174;53.486;9.568;2022-12-07T05:29:23;2.97;;;0.80;;
6282;SDS011;3174;53.486;9.568;2022-12-07T05:31:51;1.33;;;1.00;;
6282;SDS011;3174;53.486;9.568;2022-12-07T05:34:20;1.53;;;1.00;;
6282;SDS011;3174;53.486;9.568;2022-12-07T05:36:48;1.33;;;0.97;;
6282;SDS011;3174;53.486;9.568;2022-12-07T05:39:16;5.80;;;0.90;;
6282;SDS011;3174;53.486;9.568;2022-12-07T05:41:44;3.47;;;1.00;;
6282;SDS011;3174;53.486;9.568;2022-12-07T05:44:31;3.63;;;1.20;;
6282;SDS011;3174;53.486;9.568;2022-12-07T05:46:58;1.33;;;0.90;;
6282;SDS011;3174;53.486;9.568;2022-12-07T05:49:26;10.30;;;1.43;;
6282;SDS011;3174;53.486;9.568;2022-12-07T05:51:54;3.30;;;1.00;;
6282;SDS011;3174;53.486;9.568;2022-12-07T05:54:22;2.50;;;1.10;;
6282;SDS011;3174;53.486;9.568;2022-12-07T05:56:50;2.07;;;0.90;;
6282;SDS011;3174;53.486;9.568;2022-12-07T05:59:18;2.60;;;0.97;;
6282;SDS011;3174;53.486;9.568;2022-12-07T06:01:55;1.73;;;0.97;;
6282;SDS011;3174;53.486;9.568;2022-12-07T06:04:24;1.23;;;1.00;;
6282;SDS011;3174;53.486;9.568;2022-12-07T06:06:53;3.23;;;2.50;;
6282;SDS011;3174;53.486;9.568;2022-12-07T06:09:22;2.27;;;1.40;;
6282;SDS011;3174;53.486;9.568;2022-12-07T06:11:51;1.73;;;1.00;;
6282;SDS011;3174;53.486;9.568;2022-12-07T06:14:36;1.03;;;1.00;;
6282;SDS011;3174;53.486;9.568;2022-12-07T06:17:06;1.47;;;1.07;;
6282;SDS011;3174;53.486;9.568;2022-12-07T06:19:34;3.17;;;0.80;;
6282;SDS011;3174;53.486;9.568;2022-12-07T06:22:02;1.73;;;1.13;;
6282;SDS011;3174;53.486;9.568;2022-12-07T06:24:31;1.80;;;1.20;;
6282;SDS011;3174;53.486;9.568;2022-12-07T06:26:59;3.47;;;1.20;;
6282;SDS011;3174;53.486;9.568;2022-12-07T06:29:27;0.80;;;0.70;;
6282;SDS011;3174;53.486;9.568;2022-12-07T06:31:55;1.60;;;0.97;;
6282;SDS011;3174;53.486;9.568;2022-12-07T06:34:24;1.10;;;0.90;;
6282;SDS011;3174;53.486;9.568;2022-12-07T06:36:53;5.10;;;1.10;;
6282;SDS011;3174;53.486;9.568;2022-12-07T06:39:22;0.90;;;0.80;;
6282;SDS011;3174;53.486;9.568;2022-12-07T06:41:51;1.63;;;0.87;;
6282;SDS011;3174;53.486;9.568;2022-12-07T06:44:20;3.87;;;1.13;;
6282;SDS011;3174;53.486;9.568;2022-12-07T06:46:49;3.23;;;1.00;;
6282;SDS011;3174;53.486;9.568;2022-12-07T06:49:17;1.83;;;1.50;;
6282;SDS011;3174;53.486;9.568;2022-12-07T06:51:47;3.80;;;0.90;;
6282;SDS011;3174;53.486;9.568;2022-12-07T06:54:15;1.17;;;1.00;;
6282;SDS011;3174;53.486;9.568;2022-12-07T06:56:43;1.50;;;1.00;;
6282;SDS011;3174;53.486;9.568;2022-12-07T06:59:11;2.20;;;1.17;;
6282;SDS011;3174;53.486;9.568;2022-12-07T07:01:40;2.17;;;1.00;;
6282;SDS011;3174;53.486;9.568;2022-12-07T07:04:08;2.20;;;1.27;;
6282;SDS011;3174;53.486;9.568;2022-12-07T07:06:35;2.57;;;2.33;;
6282;SDS011;3174;53.486;9.568;2022-12-07T07:09:05;6.47;;;1.77;;
6282;SDS011;3174;53.486;9.568;2022-12-07T07:11:33;1.40;;;1.30;;
6282;SDS011;3174;53.486;9.568;2022-12-07T07:14:01;4.27;;;3.20;;
6282;SDS011;3174;53.486;9.568;2022-12-07T07:16:29;3.33;;;2.63;;
6282;SDS011;3174;53.486;9.568;2022-12-07T07:18:57;5.33;;;3.03;;
6282;SDS011;3174;53.486;9.568;2022-12-07T07:21:25;10.97;;;9.53;;
6282;SDS011;3174;53.486;9.568;2022-12-07T07:23:53;2.90;;;2.13;;
6282;SDS011;3174;53.486;9.568;2022-12-07T07:26:23;8.83;;;5.13;;
6282;SDS011;3174;53.486;9.568;2022-12-07T07:28:54;4.87;;;2.70;;
6282;SDS011;3174;53.486;9.568;2022-12-07T07:31:22;9.63;;;5.83;;
6282;SDS011;3174;53.486;9.568;2022-12-07T07:33:50;5.20;;;3.30;;
6282;SDS011;3174;53.486;9.568;2022-12-07T07:36:18;4.50;;;2.50;;
6282;SDS011;3174;53.486;9.568;2022-12-07T07:38:46;3.17;;;2.00;;
6282;SDS011;3174;53.486;9.568;2022-12-07T07:41:14;2.87;;;1.80;;
6282;SDS011;3174;53.486;9.568;2022-12-07T07:43:43;4.10;;;2.00;;
6282;SDS011;3174;53.486;9.568;2022-12-07T07:46:11;4.07;;;2.23;;
6282;SDS011;3174;53.486;9.568;2022-12-07T07:48:39;2.70;;;1.57;;
6282;SDS011;3174;53.486;9.568;2022-12-07T07:51:07;3.70;;;2.00;;
6282;SDS011;3174;53.486;9.568;2022-12-07T07:53:35;4.50;;;2.87;;
6282;SDS011;3174;53.486;9.568;2022-12-07T07:56:03;4.70;;;2.20;;
6282;SDS011;3174;53.486;9.568;2022-12-07T07:58:31;2.43;;;1.97;;
6282;SDS011;3174;53.486;9.568;2022-12-07T08:01:04;2.33;;;1.63;;
6282;SDS011;3174;53.486;9.568;2022-12-07T08:03:32;3.87;;;2.03;;
6282;SDS011;3174;53.486;9.568;2022-12-07T08:06:01;2.80;;;1.53;;
6282;SDS011;3174;53.486;9.568;2022-12-07T08:08:29;3.90;;;1.87;;
6282;SDS011;3174;53.486;9.568;2022-12-07T08:10:57;7.50;;;1.97;;
6282;SDS011;3174;53.486;9.568;2022-12-07T08:13:27;4.77;;;1.87;;
6282;SDS011;3174;53.486;9.568;2022-12-07T08:15:57;3.60;;;2.50;;
6282;SDS011;3174;53.486;9.568;2022-12-07T08:18:27;5.23;;;2.17;;
6282;SDS011;3174;53.486;9.568;2022-12-07T08:20:58;6.03;;;3.30;;
6282;SDS011;3174;53.486;9.568;2022-12-07T08:23:27;2.03;;;1.87;;
6282;SDS011;3174;53.486;9.568;2022-12-07T08:26:05;2.40;;;1.87;;
6282;SDS011;3174;53.486;9.568;2022-12-07T08:28:34;2.77;;;1.80;;
6282;SDS011;3174;53.486;9.568;2022-12-07T08:31:03;3.53;;;1.77;;
6282;SDS011;3174;53.486;9.568;2022-12-07T08:33:33;6.20;;;2.77;;
6282;SDS011;3174;53.486;9.568;2022-12-07T08:36:02;3.00;;;2.13;;
6282;SDS011;3174;53.486;9.568;2022-12-07T08:38:30;2.03;;;1.50;;
6282;SDS011;3174;53.486;9.568;2022-12-07T08:40:59;2.57;;;1.93;;
6282;SDS011;3174;53.486;9.568;2022-12-07T08:43:27;7.47;;;3.83;;
6282;SDS011;3174;53.486;9.568;2022-12-07T08:45:56;4.87;;;3.30;;
6282;SDS011;3174;53.486;9.568;2022-12-07T08:48:31;6.00;;;2.57;;
6282;SDS011;3174;53.486;9.568;2022-12-07T08:51:02;5.17;;;2.90;;
6282;SDS011;3174;53.486;9.568;2022-12-07T08:53:30;3.87;;;2.43;;
6282;SDS011;3174;53.486;9.568;2022-12-07T08:55:58;4.07;;;2.73;;
6282;SDS011;3174;53.486;9.568;2022-12-07T08:58:26;12.67;;;2.73;;
6282;SDS011;3174;53.486;9.568;2022-12-07T09:00:54;3.03;;;2.30;;
6282;SDS011;3174;53.486;9.568;2022-12-07T09:03:22;4.60;;;2.20;;
6282;SDS011;3174;53.486;9.568;2022-12-07T09:05:52;4.07;;;1.90;;
6282;SDS011;3174;53.486;9.568;2022-12-07T09:08:20;2.00;;;1.53;;
6282;SDS011;3174;53.486;9.568;2022-12-07T09:10:49;4.77;;;2.80;;
6282;SDS011;3174;53.486;9.568;2022-12-07T09:13:17;2.77;;;1.27;;
6282;SDS011;3174;53.486;9.568;2022-12-07T09:15:45;2.80;;;1.10;;
6282;SDS011;3174;53.486;9.568;2022-12-07T09:18:13;1.93;;;1.47;;
6282;SDS011;3174;53.486;9.568;2022-12-07T09:20:41;4.50;;;1.30;;
6282;SDS011;3174;53.486;9.568;2022-12-07T09:23:11;2.57;;;1.80;;
6282;SDS011;3174;53.486;9.568;2022-12-07T09:25:39;2.53;;;1.87;;
6282;SDS011;3174;53.486;9.568;2022-12-07T09:28:07;2.73;;;1.30;;
6282;SDS011;3174;53.486;9.568;2022-12-07T09:30:35;1.23;;;0.80;;
6282;SDS011;3174;53.486;9.568;2022-12-07T09:33:23;1.90;;;1.13;;
6282;SDS011;3174;53.486;9.568;2022-12-07T09:35:51;3.47;;;1.60;;
6282;SDS011;3174;53.486;9.568;2022-12-07T09:38:21;2.03;;;1.33;;
6282;SDS011;3174;53.486;9.568;2022-12-07T09:40:50;3.30;;;1.47;;
6282;SDS011;3174;53.486;9.568;2022-12-07T09:43:19;2.90;;;2.20;;
6282;SDS011;3174;53.486;9.568;2022-12-07T09:45:49;2.37;;;1.30;;
6282;SDS011;3174;53.486;9.568;2022-12-07T09:48:20;4.40;;;1.20;;
6282;SDS011;3174;53.486;9.568;2022-12-07T09:50:49;4.27;;;1.23;;
6282;SDS011;3174;53.486;9.568;2022-12-07T09:53:19;0.83;;;0.80;;
6282;SDS011;3174;53.486;9.568;2022-12-07T09:55:50;2.10;;;1.20;;
6282;SDS011;3174;53.486;9.568;2022-12-07T09:58:21;7.73;;;1.70;;
6282;SDS011;3174;53.486;9.568;2022-12-07T10:00:51;5.37;;;1.73;;
6282;SDS011;3174;53.486;9.568;2022-12-07T10:03:21;2.80;;;1.30;;
6282;SDS011;3174;53.486;9.568;2022-12-07T10:05:50;7.57;;;2.30;;
6282;SDS011;3174;53.486;9.568;2022-12-07T10:08:19;4.60;;;1.53;;
6282;SDS011;3174;53.486;9.568;2022-12-07T10:10:50;2.27;;;1.03;;
6282;SDS011;3174;53.486;9.568;2022-12-07T10:13:19;3.60;;;1.20;;
6282;SDS011;3174;53.486;9.568;2022-12-07T10:15:49;5.53;;;2.77;;
6282;SDS011;3174;53.486;9.568;2022-12-07T10:18:20;7.50;;;2.40;;
6282;SDS011;3174;53.486;9.568;2022-12-07T10:21:00;5.90;;;1.63;;
6282;SDS011;3174;53.486;9.568;2022-12-07T10:23:30;4.80;;;1.97;;
6282;SDS011;3174;53.486;9.568;2022-12-07T10:26:00;3.10;;;1.03;;
6282;SDS011;3174;53.486;9.568;2022-12-07T10:28:46;3.03;;;1.40;;
6282;SDS011;3174;53.486;9.568;2022-12-07T10:31:15;2.73;;;0.90;;
6282;SDS011;3174;53.486;9.568;2022-12-07T10:33:48;3.07;;;1.67;;
6282;SDS011;3174;53.486;9.568;2022-12-07T10:36:19;1.63;;;0.93;;
6282;SDS011;3174;53.486;9.568;2022-12-07T10:38:49;3.13;;;1.60;;
6282;SDS011;3174;53.486;9.568;2022-12-07T10:41:19;4.87;;;1.50;;
6282;SDS011;3174;53.486;9.568;2022-12-07T10:43:48;2.33;;;1.43;;
6282;SDS011;3174;53.486;9.568;2022-12-07T10:46:25;1.30;;;0.97;;
6282;SDS011;3174;53.486;9.568;2022-12-07T10:49:14;2.83;;;0.90;;
6282;SDS011;3174;53.486;9.568;2022-12-07T10:51:56;3.17;;;1.10;;
6282;SDS011;3174;53.486;9.568;2022-12-07T10:54:29;4.93;;;0.73;;
6282;SDS011;3174;53.486;9.568;2022-12-07T10:57:08;2.30;;;1.30;;
6282;SDS011;3174;53.486;9.568;2022-12-07T11:02:45;3.23;;;0.70;;
6282;SDS011;3174;53.486;9.568;2022-12-07T11:05:23;4.97;;;1.90;;
6282;SDS011;3174;53.486;9.568;2022-12-07T11:07:58;9.00;;;2.63;;
6282;SDS011;3174;53.486;9.568;2022-12-07T11:10:30;7.20;;;2.47;;
6282;SDS011;3174;53.486;9.568;2022-12-07T11:13:17;3.00;;;1.07;;
6282;SDS011;3174;53.486;9.568;2022-12-07T11:18:47;5.30;;;2.33;;
6282;SDS011;3174;53.486;9.568;2022-12-07T11:21:20;2.87;;;1.80;;
6282;SDS011;3174;53.486;9.568;2022-12-07T11:23:54;3.37;;;1.97;;
6282;SDS011;3174;53.486;9.568;2022-12-07T11:26:28;5.30;;;2.73;;
6282;SDS011;3174;53.486;9.568;2022-12-07T11:29:09;13.97;;;6.20;;
6282;SDS011;3174;53.486;9.568;2022-12-07T11:31:51;6.33;;;4.40;;
6282;SDS011;3174;53.486;9.568;2022-12-07T11:34:27;10.23;;;5.67;;
6282;SDS011;3174;53.486;9.568;2022-12-07T11:37:05;5.37;;;1.50;;
6282;SDS011;3174;53.486;9.568;2022-12-07T11:39:41;7.07;;;3.23;;
6282;SDS011;3174;53.486;9.568;2022-12-07T11:42:13;7.53;;;2.07;;
6282;SDS011;3174;53.486;9.568;2022-12-07T11:44:47;2.60;;;1.73;;
6282;SDS011;3174;53.486;9.568;2022-12-07T11:47:21;7.90;;;2.03;;
6282;SDS011;3174;53.486;9.568;2022-12-07T11:49:56;2.80;;;2.00;;
6282;SDS011;3174;53.486;9.568;2022-12-07T11:52:30;7.23;;;2.60;;
6282;SDS011;3174;53.486;9.568;2022-12-07T11:55:02;3.17;;;1.50;;
6282;SDS011;3174;53.486;9.568;2022-12-07T11:57:42;3.30;;;1.80;;
6282;SDS011;3174;53.486;9.568;2022-12-07T12:02:43;9.40;;;2.20;;
6282;SDS011;3174;53.486;9.568;2022-12-07T12:05:16;4.27;;;1.73;;
6282;SDS011;3174;53.486;9.568;2022-12-07T12:07:46;3.57;;;1.50;;
6282;SDS011;3174;53.486;9.568;2022-12-07T12:10:38;4.07;;;1.70;;
6282;SDS011;3174;53.486;9.568;2022-12-07T12:16:50;4.67;;;1.10;;
6282;SDS011;3174;53.486;9.568;2022-12-07T12:19:33;7.70;;;1.30;;
6282;SDS011;3174;53.486;9.568;2022-12-07T12:22:06;4.90;;;1.10;;
6282;SDS011;3174;53.486;9.568;2022-12-07T12:24:39;4.00;;;1.10;;
6282;SDS011;3174;53.486;9.568;2022-12-07T12:27:09;2.53;;;1.10;;
6282;SDS011;3174;53.486;9.568;2022-12-07T12:29:42;2.23;;;1.10;;
6282;SDS011;3174;53.486;9.568;2022-12-07T12:32:14;3.33;;;1.10;;
6282;SDS011;3174;53.486;9.568;2022-12-07T12:34:59;2.57;;;1.10;;
6282;SDS011;3174;53.486;9.568;2022-12-07T12:37:40;2.23;;;1.00;;
6282;SDS011;3174;53.486;9.568;2022-12-07T12:55:22;11.43;;;4.43;;
6282;SDS011;3174;53.486;9.568;2022-12-07T12:58:28;8.30;;;2.73;;
6282;SDS011;3174;53.486;9.568;2022-12-07T13:04:27;8.30;;;3.23;;
6282;SDS011;3174;53.486;9.568;2022-12-07T13:07:06;3.40;;;1.90;;
6282;SDS011;3174;53.486;9.568;2022-12-07T13:09:38;3.17;;;2.03;;
6282;SDS011;3174;53.486;9.568;2022-12-07T13:12:13;5.40;;;1.90;;
6282;SDS011;3174;53.486;9.568;2022-12-07T13:14:52;4.43;;;2.23;;
6282;SDS011;3174;53.486;9.568;2022-12-07T13:23:15;20.93;;;9.00;;
6282;SDS011;3174;53.486;9.568;2022-12-07T13:25:54;10.87;;;6.57;;
6282;SDS011;3174;53.486;9.568;2022-12-07T13:28:27;9.63;;;5.47;;
6282;SDS011;3174;53.486;9.568;2022-12-07T13:31:12;13.97;;;5.27;;
6282;SDS011;3174;53.486;9.568;2022-12-07T13:33:59;7.00;;;2.77;;
6282;SDS011;3174;53.486;9.568;2022-12-07T13:36:29;8.10;;;5.17;;
6282;SDS011;3174;53.486;9.568;2022-12-07T13:39:17;10.57;;;4.83;;
6282;SDS011;3174;53.486;9.568;2022-12-07T13:41:49;16.97;;;5.87;;
6282;SDS011;3174;53.486;9.568;2022-12-07T13:44:18;9.97;;;2.40;;
6282;SDS011;3174;53.486;9.568;2022-12-07T13:46:49;15.63;;;5.60;;
6282;SDS011;3174;53.486;9.568;2022-12-07T13:49:23;3.13;;;1.17;;
6282;SDS011;3174;53.486;9.568;2022-12-07T13:51:52;6.23;;;2.47;;
6282;SDS011;3174;53.486;9.568;2022-12-07T13:54:21;15.93;;;7.40;;
6282;SDS011;3174;53.486;9.568;2022-12-07T13:56:50;10.13;;;5.53;;
6282;SDS011;3174;53.486;9.568;2022-12-07T13:59:19;10.93;;;5.50;;
6282;SDS011;3174;53.486;9.568;2022-12-07T14:01:49;13.10;;;7.77;;
6282;SDS011;3174;53.486;9.568;2022-12-07T14:04:29;15.47;;;5.30;;
6282;SDS011;3174;53.486;9.568;2022-12-07T14:06:59;7.43;;;3.73;;
6282;SDS011;3174;53.486;9.568;2022-12-07T14:09:30;22.80;;;11.30;;
6282;SDS011;3174;53.486;9.568;2022-12-07T14:11:58;23.10;;;9.83;;
6282;SDS011;3174;53.486;9.568;2022-12-07T14:14:27;24.03;;;9.80;;
6282;SDS011;3174;53.486;9.568;2022-12-07T14:17:08;7.80;;;3.77;;
6282;SDS011;3174;53.486;9.568;2022-12-07T14:19:47;23.30;;;8.07;;
6282;SDS011;3174;53.486;9.568;2022-12-07T14:22:24;19.13;;;9.10;;
6282;SDS011;3174;53.486;9.568;2022-12-07T14:25:15;12.57;;;5.07;;
6282;SDS011;3174;53.486;9.568;2022-12-07T14:27:51;2.77;;;1.27;;
6282;SDS011;3174;53.486;9.568;2022-12-07T14:30:25;5.57;;;1.10;;
6282;SDS011;3174;53.486;9.568;2022-12-07T14:32:55;5.30;;;1.57;;
6282;SDS011;3174;53.486;9.568;2022-12-07T14:35:25;11.30;;;4.17;;
6282;SDS011;3174;53.486;9.568;2022-12-07T14:37:54;11.10;;;4.70;;
6282;SDS011;3174;53.486;9.568;2022-12-07T14:40:23;14.00;;;5.37;;
6282;SDS011;3174;53.486;9.568;2022-12-07T14:42:54;6.07;;;2.23;;
6282;SDS011;3174;53.486;9.568;2022-12-07T14:45:24;4.27;;;1.80;;
6282;SDS011;3174;53.486;9.568;2022-12-07T14:47:52;9.60;;;3.40;;
6282;SDS011;3174;53.486;9.568;2022-12-07T14:50:42;11.80;;;3.83;;
6282;SDS011;3174;53.486;9.568;2022-12-07T14:53:33;8.37;;;3.33;;
6282;SDS011;3174;53.486;9.568;2022-12-07T14:56:03;11.70;;;3.07;;
6282;SDS011;3174;53.486;9.568;2022-12-07T14:58:32;6.00;;;2.27;;
6282;SDS011;3174;53.486;9.568;2022-12-07T15:01:00;5.37;;;2.80;;
6282;SDS011;3174;53.486;9.568;2022-12-07T15:03:28;18.37;;;5.63;;
6282;SDS011;3174;53.486;9.568;2022-12-07T15:05:57;7.47;;;4.70;;
6282;SDS011;3174;53.486;9.568;2022-12-07T15:08:25;47.97;;;17.67;;
6282;SDS011;3174;53.486;9.568;2022-12-07T15:10:53;20.00;;;8.30;;
6282;SDS011;3174;53.486;9.568;2022-12-07T15:13:23;16.87;;;5.67;;
6282;SDS011;3174;53.486;9.568;2022-12-07T15:16:10;7.33;;;2.33;;
6282;SDS011;3174;53.486;9.568;2022-12-07T15:18:46;4.10;;;2.37;;
6282;SDS011;3174;53.486;9.568;2022-12-07T15:21:34;2.00;;;1.77;;
6282;SDS011;3174;53.486;9.568;2022-12-07T15:24:02;7.00;;;2.57;;
6282;SDS011;3174;53.486;9.568;2022-12-07T15:26:30;13.03;;;5.30;;
6282;SDS011;3174;53.486;9.568;2022-12-07T15:29:00;7.80;;;2.97;;
6282;SDS011;3174;53.486;9.568;2022-12-07T15:31:28;10.40;;;4.73;;
6282;SDS011;3174;53.486;9.568;2022-12-07T15:34:16;4.37;;;2.33;;
6282;SDS011;3174;53.486;9.568;2022-12-07T15:36:43;6.67;;;1.30;;
6282;SDS011;3174;53.486;9.568;2022-12-07T15:39:11;2.17;;;1.30;;
6282;SDS011;3174;53.486;9.568;2022-12-07T15:41:40;6.40;;;1.50;;
6282;SDS011;3174;53.486;9.568;2022-12-07T15:44:11;1.83;;;1.10;;
6282;SDS011;3174;53.486;9.568;2022-12-07T15:46:56;7.57;;;1.33;;
6282;SDS011;3174;53.486;9.568;2022-12-07T15:49:24;8.17;;;3.87;;
6282;SDS011;3174;53.486;9.568;2022-12-07T15:51:53;4.13;;;1.83;;
6282;SDS011;3174;53.486;9.568;2022-12-07T15:54:22;6.07;;;1.10;;
6282;SDS011;3174;53.486;9.568;2022-12-07T15:56:51;2.93;;;1.27;;
6282;SDS011;3174;53.486;9.568;2022-12-07T15:59:21;3.73;;;1.60;;
6282;SDS011;3174;53.486;9.568;2022-12-07T16:01:49;6.03;;;2.13;;
6282;SDS011;3174;53.486;9.568;2022-12-07T16:04:17;4.13;;;1.23;;
6282;SDS011;3174;53.486;9.568;2022-12-07T16:06:45;4.17;;;1.07;;
6282;SDS011;3174;53.486;9.568;2022-12-07T16:09:16;9.00;;;3.33;;
6282;SDS011;3174;53.486;9.568;2022-12-07T16:11:44;4.90;;;2.87;;
6282;SDS011;3174;53.486;9.568;2022-12-07T16:14:12;4.20;;;2.27;;
6282;SDS011;3174;53.486;9.568;2022-12-07T16:16:41;4.57;;;1.60;;